sensor_id;sensor_type;location;lat;lon;timestamp;P1;durP1;ratioP1;P2;durP2;ratioP2
39094;SDS011;24840;47.508;19.376;2023-04-19T00:01:25;4.32;;;2.95;;
39094;SDS011;24840;47.508;19.376;2023-04-19T00:03:52;3.05;;;2.30;;
39094;SDS011;24840;47.508;19.376;2023-04-19T00:06:20;3.75;;;2.88;;
39094;SDS011;24840;47.508;19.376;2023-04-19T00:08:45;5.95;;;3.25;;
39094;SDS011;24840;47.508;19.376;2023-04-19T00:11:11;6.60;;;3.25;;
39094;SDS011;24840;47.508;19.376;2023-04-19T00:13:37;2.42;;;2.20;;
39094;SDS011;24840;47.508;19.376;2023-04-19T00:16:03;4.68;;;2.67;;
39094;SDS011;24840;47.508;19.376;2023-04-19T00:18:29;7.28;;;2.75;;
39094;SDS011;24840;47.508;19.376;2023-04-19T00:20:55;5.10;;;2.75;;
39094;SDS011;24840;47.508;19.376;2023-04-19T00:23:21;5.13;;;2.63;;
39094;SDS011;24840;47.508;19.376;2023-04-19T00:25:47;5.78;;;2.72;;
39094;SDS011;24840;47.508;19.376;2023-04-19T00:28:14;2.88;;;2.47;;
39094;SDS011;24840;47.508;19.376;2023-04-19T00:30:40;4.63;;;2.38;;
39094;SDS011;24840;47.508;19.376;2023-04-19T00:33:06;4.10;;;2.60;;
39094;SDS011;24840;47.508;19.376;2023-04-19T00:35:39;2.60;;;2.35;;
39094;SDS011;24840;47.508;19.376;2023-04-19T00:38:08;4.70;;;2.80;;
39094;SDS011;24840;47.508;19.376;2023-04-19T00:40:35;3.40;;;2.65;;
39094;SDS011;24840;47.508;19.376;2023-04-19T00:43:01;4.80;;;2.70;;
39094;SDS011;24840;47.508;19.376;2023-04-19T00:45:27;5.15;;;2.63;;
39094;SDS011;24840;47.508;19.376;2023-04-19T00:47:53;4.45;;;2.72;;
39094;SDS011;24840;47.508;19.376;2023-04-19T00:50:20;6.65;;;3.17;;
39094;SDS011;24840;47.508;19.376;2023-04-19T00:52:46;3.58;;;2.60;;
39094;SDS011;24840;47.508;19.376;2023-04-19T00:55:12;5.38;;;3.10;;
39094;SDS011;24840;47.508;19.376;2023-04-19T00:57:39;4.85;;;2.97;;
39094;SDS011;24840;47.508;19.376;2023-04-19T01:00:05;4.50;;;3.05;;
39094;SDS011;24840;47.508;19.376;2023-04-19T01:02:33;4.13;;;2.60;;
39094;SDS011;24840;47.508;19.376;2023-04-19T01:04:59;5.90;;;3.10;;
39094;SDS011;24840;47.508;19.376;2023-04-19T01:07:25;5.18;;;2.80;;
39094;SDS011;24840;47.508;19.376;2023-04-19T01:09:51;4.78;;;2.75;;
39094;SDS011;24840;47.508;19.376;2023-04-19T01:12:17;3.53;;;3.22;;
39094;SDS011;24840;47.508;19.376;2023-04-19T01:14:43;7.35;;;3.08;;
39094;SDS011;24840;47.508;19.376;2023-04-19T01:17:09;4.20;;;3.17;;
39094;SDS011;24840;47.508;19.376;2023-04-19T01:19:37;3.80;;;2.92;;
39094;SDS011;24840;47.508;19.376;2023-04-19T01:22:03;4.75;;;3.25;;
39094;SDS011;24840;47.508;19.376;2023-04-19T01:24:30;3.08;;;2.60;;
39094;SDS011;24840;47.508;19.376;2023-04-19T01:26:57;4.60;;;3.60;;
39094;SDS011;24840;47.508;19.376;2023-04-19T01:29:22;5.75;;;3.13;;
39094;SDS011;24840;47.508;19.376;2023-04-19T01:31:48;5.53;;;3.42;;
39094;SDS011;24840;47.508;19.376;2023-04-19T01:34:20;4.68;;;3.13;;
39094;SDS011;24840;47.508;19.376;2023-04-19T01:36:49;8.98;;;3.53;;
39094;SDS011;24840;47.508;19.376;2023-04-19T01:39:15;3.90;;;2.78;;
39094;SDS011;24840;47.508;19.376;2023-04-19T01:41:41;5.05;;;3.00;;
39094;SDS011;24840;47.508;19.376;2023-04-19T01:44:07;6.82;;;3.58;;
39094;SDS011;24840;47.508;19.376;2023-04-19T01:46:33;6.13;;;3.33;;
39094;SDS011;24840;47.508;19.376;2023-04-19T01:49:00;4.45;;;3.28;;
39094;SDS011;24840;47.508;19.376;2023-04-19T01:51:26;5.35;;;3.35;;
39094;SDS011;24840;47.508;19.376;2023-04-19T01:53:52;3.72;;;3.30;;
39094;SDS011;24840;47.508;19.376;2023-04-19T01:56:19;3.83;;;3.22;;
39094;SDS011;24840;47.508;19.376;2023-04-19T01:58:46;4.22;;;3.05;;
39094;SDS011;24840;47.508;19.376;2023-04-19T02:01:11;4.20;;;2.90;;
39094;SDS011;24840;47.508;19.376;2023-04-19T02:03:38;5.85;;;3.13;;
39094;SDS011;24840;47.508;19.376;2023-04-19T02:06:04;4.10;;;3.05;;
39094;SDS011;24840;47.508;19.376;2023-04-19T02:08:30;4.30;;;3.05;;
39094;SDS011;24840;47.508;19.376;2023-04-19T02:10:56;4.70;;;3.20;;
39094;SDS011;24840;47.508;19.376;2023-04-19T02:13:22;4.10;;;3.20;;
39094;SDS011;24840;47.508;19.376;2023-04-19T02:15:47;5.13;;;3.10;;
39094;SDS011;24840;47.508;19.376;2023-04-19T02:18:13;4.35;;;3.30;;
39094;SDS011;24840;47.508;19.376;2023-04-19T02:20:41;6.32;;;2.95;;
39094;SDS011;24840;47.508;19.376;2023-04-19T02:23:07;6.95;;;3.47;;
39094;SDS011;24840;47.508;19.376;2023-04-19T02:25:33;5.63;;;3.22;;
39094;SDS011;24840;47.508;19.376;2023-04-19T02:27:58;4.88;;;3.67;;
39094;SDS011;24840;47.508;19.376;2023-04-19T02:30:24;3.97;;;2.65;;
39094;SDS011;24840;47.508;19.376;2023-04-19T02:32:50;4.68;;;3.58;;
39094;SDS011;24840;47.508;19.376;2023-04-19T02:35:16;4.05;;;3.30;;
39094;SDS011;24840;47.508;19.376;2023-04-19T02:37:43;4.78;;;3.80;;
39094;SDS011;24840;47.508;19.376;2023-04-19T02:40:08;4.78;;;2.80;;
39094;SDS011;24840;47.508;19.376;2023-04-19T02:42:34;4.32;;;3.17;;
39094;SDS011;24840;47.508;19.376;2023-04-19T02:45:00;5.03;;;3.22;;
39094;SDS011;24840;47.508;19.376;2023-04-19T02:47:26;3.50;;;2.78;;
39094;SDS011;24840;47.508;19.376;2023-04-19T02:49:51;4.40;;;3.25;;
39094;SDS011;24840;47.508;19.376;2023-04-19T02:52:18;4.25;;;3.33;;
39094;SDS011;24840;47.508;19.376;2023-04-19T02:54:44;3.03;;;2.67;;
39094;SDS011;24840;47.508;19.376;2023-04-19T02:57:10;4.47;;;3.47;;
39094;SDS011;24840;47.508;19.376;2023-04-19T02:59:35;4.15;;;2.75;;
39094;SDS011;24840;47.508;19.376;2023-04-19T03:02:01;3.60;;;3.20;;
39094;SDS011;24840;47.508;19.376;2023-04-19T03:04:27;9.52;;;3.28;;
39094;SDS011;24840;47.508;19.376;2023-04-19T03:06:53;5.93;;;3.22;;
39094;SDS011;24840;47.508;19.376;2023-04-19T03:09:19;2.97;;;2.65;;
39094;SDS011;24840;47.508;19.376;2023-04-19T03:11:45;3.25;;;2.53;;
39094;SDS011;24840;47.508;19.376;2023-04-19T03:14:11;6.13;;;3.05;;
39094;SDS011;24840;47.508;19.376;2023-04-19T03:16:37;4.50;;;2.50;;
39094;SDS011;24840;47.508;19.376;2023-04-19T03:19:02;4.95;;;2.95;;
39094;SDS011;24840;47.508;19.376;2023-04-19T03:21:28;3.30;;;2.38;;
39094;SDS011;24840;47.508;19.376;2023-04-19T03:23:54;3.03;;;2.22;;
39094;SDS011;24840;47.508;19.376;2023-04-19T03:26:20;4.47;;;2.17;;
39094;SDS011;24840;47.508;19.376;2023-04-19T03:28:45;5.95;;;2.90;;
39094;SDS011;24840;47.508;19.376;2023-04-19T03:31:12;6.05;;;2.70;;
39094;SDS011;24840;47.508;19.376;2023-04-19T03:33:38;4.63;;;2.60;;
39094;SDS011;24840;47.508;19.376;2023-04-19T03:36:04;4.60;;;2.50;;
39094;SDS011;24840;47.508;19.376;2023-04-19T03:38:31;3.88;;;3.00;;
39094;SDS011;24840;47.508;19.376;2023-04-19T03:40:57;4.87;;;2.67;;
39094;SDS011;24840;47.508;19.376;2023-04-19T03:43:22;8.07;;;3.13;;
39094;SDS011;24840;47.508;19.376;2023-04-19T03:45:48;3.40;;;2.63;;
39094;SDS011;24840;47.508;19.376;2023-04-19T03:48:14;4.28;;;2.90;;
39094;SDS011;24840;47.508;19.376;2023-04-19T03:50:42;3.70;;;2.93;;
39094;SDS011;24840;47.508;19.376;2023-04-19T03:53:08;5.67;;;2.97;;
39094;SDS011;24840;47.508;19.376;2023-04-19T03:55:35;4.40;;;2.77;;
39094;SDS011;24840;47.508;19.376;2023-04-19T03:58:00;8.47;;;3.77;;
39094;SDS011;24840;47.508;19.376;2023-04-19T04:00:26;4.20;;;2.87;;
39094;SDS011;24840;47.508;19.376;2023-04-19T04:02:54;4.63;;;2.80;;
39094;SDS011;24840;47.508;19.376;2023-04-19T04:05:20;3.50;;;3.03;;
39094;SDS011;24840;47.508;19.376;2023-04-19T04:07:46;5.00;;;2.73;;
39094;SDS011;24840;47.508;19.376;2023-04-19T04:10:11;4.93;;;3.20;;
39094;SDS011;24840;47.508;19.376;2023-04-19T04:12:37;5.13;;;2.80;;
39094;SDS011;24840;47.508;19.376;2023-04-19T04:15:03;3.67;;;2.13;;
39094;SDS011;24840;47.508;19.376;2023-04-19T04:17:29;4.40;;;2.90;;
39094;SDS011;24840;47.508;19.376;2023-04-19T04:19:55;8.07;;;3.20;;
39094;SDS011;24840;47.508;19.376;2023-04-19T04:22:20;3.00;;;1.93;;
39094;SDS011;24840;47.508;19.376;2023-04-19T04:24:46;3.40;;;2.60;;
39094;SDS011;24840;47.508;19.376;2023-04-19T04:27:13;4.90;;;3.13;;
39094;SDS011;24840;47.508;19.376;2023-04-19T04:29:39;5.07;;;3.23;;
39094;SDS011;24840;47.508;19.376;2023-04-19T04:32:05;4.00;;;2.70;;
39094;SDS011;24840;47.508;19.376;2023-04-19T04:34:33;6.40;;;3.00;;
39094;SDS011;24840;47.508;19.376;2023-04-19T04:37:00;6.60;;;2.80;;
39094;SDS011;24840;47.508;19.376;2023-04-19T04:39:26;3.97;;;2.90;;
39094;SDS011;24840;47.508;19.376;2023-04-19T04:41:52;4.53;;;2.27;;
39094;SDS011;24840;47.508;19.376;2023-04-19T04:44:18;4.10;;;3.10;;
39094;SDS011;24840;47.508;19.376;2023-04-19T04:46:46;4.80;;;2.70;;
39094;SDS011;24840;47.508;19.376;2023-04-19T04:49:12;3.23;;;2.33;;
39094;SDS011;24840;47.508;19.376;2023-04-19T04:51:38;6.37;;;3.00;;
39094;SDS011;24840;47.508;19.376;2023-04-19T04:54:04;7.13;;;3.13;;
39094;SDS011;24840;47.508;19.376;2023-04-19T04:56:29;3.70;;;2.67;;
39094;SDS011;24840;47.508;19.376;2023-04-19T04:58:55;6.30;;;3.00;;
39094;SDS011;24840;47.508;19.376;2023-04-19T05:01:21;2.83;;;2.30;;
39094;SDS011;24840;47.508;19.376;2023-04-19T05:03:48;4.00;;;2.70;;
39094;SDS011;24840;47.508;19.376;2023-04-19T05:06:14;4.97;;;2.87;;
39094;SDS011;24840;47.508;19.376;2023-04-19T05:08:40;3.33;;;2.43;;
39094;SDS011;24840;47.508;19.376;2023-04-19T05:11:06;4.37;;;2.90;;
39094;SDS011;24840;47.508;19.376;2023-04-19T05:13:32;4.37;;;2.50;;
39094;SDS011;24840;47.508;19.376;2023-04-19T05:15:58;7.60;;;2.73;;
39094;SDS011;24840;47.508;19.376;2023-04-19T05:18:24;5.37;;;2.50;;
39094;SDS011;24840;47.508;19.376;2023-04-19T05:20:49;5.33;;;2.60;;
39094;SDS011;24840;47.508;19.376;2023-04-19T05:23:15;5.23;;;3.17;;
39094;SDS011;24840;47.508;19.376;2023-04-19T05:25:42;4.77;;;3.40;;
39094;SDS011;24840;47.508;19.376;2023-04-19T05:28:08;5.32;;;3.38;;
39094;SDS011;24840;47.508;19.376;2023-04-19T05:30:33;7.45;;;2.75;;
39094;SDS011;24840;47.508;19.376;2023-04-19T05:32:59;5.38;;;3.30;;
39094;SDS011;24840;47.508;19.376;2023-04-19T05:35:25;3.78;;;3.17;;
39094;SDS011;24840;47.508;19.376;2023-04-19T05:37:51;6.00;;;3.72;;
39094;SDS011;24840;47.508;19.376;2023-04-19T05:40:16;5.00;;;3.58;;
39094;SDS011;24840;47.508;19.376;2023-04-19T05:42:43;5.38;;;3.83;;
39094;SDS011;24840;47.508;19.376;2023-04-19T05:45:09;4.85;;;3.75;;
39094;SDS011;24840;47.508;19.376;2023-04-19T05:47:35;5.85;;;3.95;;
39094;SDS011;24840;47.508;19.376;2023-04-19T05:50:02;5.05;;;3.08;;
39094;SDS011;24840;47.508;19.376;2023-04-19T05:52:28;6.05;;;3.90;;
39094;SDS011;24840;47.508;19.376;2023-04-19T05:54:54;5.38;;;4.15;;
39094;SDS011;24840;47.508;19.376;2023-04-19T05:57:20;5.75;;;4.45;;
39094;SDS011;24840;47.508;19.376;2023-04-19T05:59:45;5.82;;;4.55;;
39094;SDS011;24840;47.508;19.376;2023-04-19T06:02:11;10.13;;;4.57;;
39094;SDS011;24840;47.508;19.376;2023-04-19T06:04:37;6.45;;;4.50;;
39094;SDS011;24840;47.508;19.376;2023-04-19T06:07:03;6.47;;;4.07;;
39094;SDS011;24840;47.508;19.376;2023-04-19T06:09:29;6.65;;;4.18;;
39094;SDS011;24840;47.508;19.376;2023-04-19T06:11:55;7.50;;;4.57;;
39094;SDS011;24840;47.508;19.376;2023-04-19T06:14:21;10.10;;;4.35;;
39094;SDS011;24840;47.508;19.376;2023-04-19T06:16:46;4.97;;;3.67;;
39094;SDS011;24840;47.508;19.376;2023-04-19T06:19:12;6.35;;;3.85;;
39094;SDS011;24840;47.508;19.376;2023-04-19T06:21:38;6.22;;;4.30;;
39094;SDS011;24840;47.508;19.376;2023-04-19T06:24:07;11.35;;;4.05;;
39094;SDS011;24840;47.508;19.376;2023-04-19T06:26:33;6.00;;;4.10;;
39094;SDS011;24840;47.508;19.376;2023-04-19T06:28:59;5.93;;;3.50;;
39094;SDS011;24840;47.508;19.376;2023-04-19T06:31:25;6.38;;;3.85;;
39094;SDS011;24840;47.508;19.376;2023-04-19T06:33:51;9.60;;;4.00;;
39094;SDS011;24840;47.508;19.376;2023-04-19T06:36:16;5.68;;;3.63;;
39094;SDS011;24840;47.508;19.376;2023-04-19T06:38:42;15.77;;;5.10;;
39094;SDS011;24840;47.508;19.376;2023-04-19T06:41:10;5.50;;;3.80;;
39094;SDS011;24840;47.508;19.376;2023-04-19T06:43:36;6.10;;;4.03;;
39094;SDS011;24840;47.508;19.376;2023-04-19T06:46:04;6.95;;;4.60;;
39094;SDS011;24840;47.508;19.376;2023-04-19T06:48:30;8.60;;;4.63;;
39094;SDS011;24840;47.508;19.376;2023-04-19T06:50:57;11.85;;;4.78;;
39094;SDS011;24840;47.508;19.376;2023-04-19T06:53:23;5.20;;;4.03;;
39094;SDS011;24840;47.508;19.376;2023-04-19T06:55:57;5.00;;;3.72;;
39094;SDS011;24840;47.508;19.376;2023-04-19T06:58:28;7.82;;;3.83;;
39094;SDS011;24840;47.508;19.376;2023-04-19T07:00:56;6.25;;;3.60;;
39094;SDS011;24840;47.508;19.376;2023-04-19T07:03:22;5.47;;;3.90;;
39094;SDS011;24840;47.508;19.376;2023-04-19T07:05:47;6.53;;;3.42;;
39094;SDS011;24840;47.508;19.376;2023-04-19T07:08:13;6.47;;;4.20;;
39094;SDS011;24840;47.508;19.376;2023-04-19T07:10:40;7.57;;;4.35;;
39094;SDS011;24840;47.508;19.376;2023-04-19T07:13:08;7.18;;;3.67;;
39094;SDS011;24840;47.508;19.376;2023-04-19T07:15:36;8.10;;;3.90;;
39094;SDS011;24840;47.508;19.376;2023-04-19T07:18:02;6.40;;;3.88;;
39094;SDS011;24840;47.508;19.376;2023-04-19T07:20:28;4.25;;;3.30;;
39094;SDS011;24840;47.508;19.376;2023-04-19T07:22:56;6.68;;;3.35;;
39094;SDS011;24840;47.508;19.376;2023-04-19T07:25:22;6.68;;;2.65;;
39094;SDS011;24840;47.508;19.376;2023-04-19T07:27:48;5.63;;;2.70;;
39094;SDS011;24840;47.508;19.376;2023-04-19T07:30:14;6.18;;;3.58;;
39094;SDS011;24840;47.508;19.376;2023-04-19T07:32:40;8.02;;;4.55;;
39094;SDS011;24840;47.508;19.376;2023-04-19T07:35:05;10.07;;;5.00;;
39094;SDS011;24840;47.508;19.376;2023-04-19T07:37:31;7.20;;;4.30;;
39094;SDS011;24840;47.508;19.376;2023-04-19T07:39:57;5.88;;;2.80;;
39094;SDS011;24840;47.508;19.376;2023-04-19T07:42:23;7.35;;;3.47;;
39094;SDS011;24840;47.508;19.376;2023-04-19T07:44:50;3.80;;;2.80;;
39094;SDS011;24840;47.508;19.376;2023-04-19T07:47:15;4.40;;;3.20;;
39094;SDS011;24840;47.508;19.376;2023-04-19T07:49:41;4.47;;;2.42;;
39094;SDS011;24840;47.508;19.376;2023-04-19T07:52:08;5.20;;;2.15;;
39094;SDS011;24840;47.508;19.376;2023-04-19T07:54:34;2.75;;;2.25;;
39094;SDS011;24840;47.508;19.376;2023-04-19T07:57:02;4.10;;;2.33;;
39094;SDS011;24840;47.508;19.376;2023-04-19T07:59:28;7.10;;;2.53;;
39094;SDS011;24840;47.508;19.376;2023-04-19T08:01:57;8.18;;;2.97;;
39094;SDS011;24840;47.508;19.376;2023-04-19T08:04:23;3.13;;;1.85;;
39094;SDS011;24840;47.508;19.376;2023-04-19T08:06:49;3.75;;;2.75;;
39094;SDS011;24840;47.508;19.376;2023-04-19T08:09:16;4.10;;;2.60;;
39094;SDS011;24840;47.508;19.376;2023-04-19T08:11:42;6.20;;;2.88;;
39094;SDS011;24840;47.508;19.376;2023-04-19T08:14:08;3.38;;;2.10;;
39094;SDS011;24840;47.508;19.376;2023-04-19T08:16:34;3.47;;;2.17;;
39094;SDS011;24840;47.508;19.376;2023-04-19T08:19:00;4.95;;;2.40;;
39094;SDS011;24840;47.508;19.376;2023-04-19T08:21:26;7.32;;;3.60;;
39094;SDS011;24840;47.508;19.376;2023-04-19T08:23:51;4.90;;;2.78;;
39094;SDS011;24840;47.508;19.376;2023-04-19T08:26:17;4.22;;;2.55;;
39094;SDS011;24840;47.508;19.376;2023-04-19T08:28:43;4.20;;;2.10;;
39094;SDS011;24840;47.508;19.376;2023-04-19T08:31:09;4.32;;;2.28;;
39094;SDS011;24840;47.508;19.376;2023-04-19T08:33:35;3.85;;;2.20;;
39094;SDS011;24840;47.508;19.376;2023-04-19T08:36:01;3.38;;;1.73;;
39094;SDS011;24840;47.508;19.376;2023-04-19T08:38:26;3.33;;;2.15;;
39094;SDS011;24840;47.508;19.376;2023-04-19T08:40:53;3.05;;;2.50;;
39094;SDS011;24840;47.508;19.376;2023-04-19T08:43:19;3.92;;;2.10;;
39094;SDS011;24840;47.508;19.376;2023-04-19T08:45:49;6.43;;;1.98;;
39094;SDS011;24840;47.508;19.376;2023-04-19T08:48:15;2.45;;;1.90;;
39094;SDS011;24840;47.508;19.376;2023-04-19T08:50:42;3.83;;;2.42;;
39094;SDS011;24840;47.508;19.376;2023-04-19T08:53:10;7.65;;;2.40;;
39094;SDS011;24840;47.508;19.376;2023-04-19T08:55:37;4.63;;;3.00;;
39094;SDS011;24840;47.508;19.376;2023-04-19T08:58:05;3.47;;;2.15;;
39094;SDS011;24840;47.508;19.376;2023-04-19T09:00:32;3.50;;;2.05;;
39094;SDS011;24840;47.508;19.376;2023-04-19T09:02:58;4.10;;;2.78;;
39094;SDS011;24840;47.508;19.376;2023-04-19T09:05:24;3.58;;;2.20;;
39094;SDS011;24840;47.508;19.376;2023-04-19T09:07:50;4.47;;;2.45;;
39094;SDS011;24840;47.508;19.376;2023-04-19T09:10:17;6.55;;;2.92;;
39094;SDS011;24840;47.508;19.376;2023-04-19T09:15:36;5.07;;;2.58;;
39094;SDS011;24840;47.508;19.376;2023-04-19T09:18:05;3.15;;;2.00;;
39094;SDS011;24840;47.508;19.376;2023-04-19T09:20:38;8.73;;;2.25;;
39094;SDS011;24840;47.508;19.376;2023-04-19T09:23:05;4.70;;;2.45;;
39094;SDS011;24840;47.508;19.376;2023-04-19T09:25:33;3.75;;;2.35;;
39094;SDS011;24840;47.508;19.376;2023-04-19T09:28:11;2.65;;;1.95;;
39094;SDS011;24840;47.508;19.376;2023-04-19T09:30:38;3.67;;;1.98;;
39094;SDS011;24840;47.508;19.376;2023-04-19T09:33:05;4.15;;;1.92;;
39094;SDS011;24840;47.508;19.376;2023-04-19T09:35:45;3.47;;;2.10;;
39094;SDS011;24840;47.508;19.376;2023-04-19T09:38:13;4.45;;;2.25;;
39094;SDS011;24840;47.508;19.376;2023-04-19T09:40:40;4.68;;;2.15;;
39094;SDS011;24840;47.508;19.376;2023-04-19T09:43:06;6.82;;;2.58;;
39094;SDS011;24840;47.508;19.376;2023-04-19T09:45:39;13.93;;;2.65;;
39094;SDS011;24840;47.508;19.376;2023-04-19T09:58:02;5.20;;;1.98;;
39094;SDS011;24840;47.508;19.376;2023-04-19T10:00:28;5.53;;;2.50;;
39094;SDS011;24840;47.508;19.376;2023-04-19T10:02:54;5.15;;;2.63;;
39094;SDS011;24840;47.508;19.376;2023-04-19T10:05:22;2.45;;;2.25;;
39094;SDS011;24840;47.508;19.376;2023-04-19T10:07:48;3.17;;;2.10;;
39094;SDS011;24840;47.508;19.376;2023-04-19T10:10:17;4.20;;;1.90;;
39094;SDS011;24840;47.508;19.376;2023-04-19T10:12:47;3.08;;;1.98;;
39094;SDS011;24840;47.508;19.376;2023-04-19T10:15:15;4.68;;;2.50;;
39094;SDS011;24840;47.508;19.376;2023-04-19T10:17:42;4.25;;;1.88;;
39094;SDS011;24840;47.508;19.376;2023-04-19T10:20:09;11.00;;;2.38;;
39094;SDS011;24840;47.508;19.376;2023-04-19T10:22:41;3.35;;;2.45;;
39094;SDS011;24840;47.508;19.376;2023-04-19T10:25:08;5.70;;;2.53;;
39094;SDS011;24840;47.508;19.376;2023-04-19T10:27:39;2.13;;;1.60;;
39094;SDS011;24840;47.508;19.376;2023-04-19T10:30:16;4.20;;;2.33;;
39094;SDS011;24840;47.508;19.376;2023-04-19T10:32:43;4.10;;;2.05;;
39094;SDS011;24840;47.508;19.376;2023-04-19T10:35:18;2.78;;;2.03;;
39094;SDS011;24840;47.508;19.376;2023-04-19T10:38:01;3.67;;;2.47;;
39094;SDS011;24840;47.508;19.376;2023-04-19T10:43:15;3.53;;;2.08;;
39094;SDS011;24840;47.508;19.376;2023-04-19T10:45:42;2.53;;;2.00;;
39094;SDS011;24840;47.508;19.376;2023-04-19T10:53:42;7.03;;;2.67;;
39094;SDS011;24840;47.508;19.376;2023-04-19T10:56:09;2.13;;;1.92;;
39094;SDS011;24840;47.508;19.376;2023-04-19T11:03:58;2.60;;;2.22;;
39094;SDS011;24840;47.508;19.376;2023-04-19T11:06:27;2.53;;;2.15;;
39094;SDS011;24840;47.508;19.376;2023-04-19T11:08:53;3.20;;;2.10;;
39094;SDS011;24840;47.508;19.376;2023-04-19T11:11:19;5.78;;;2.45;;
39094;SDS011;24840;47.508;19.376;2023-04-19T11:13:48;4.63;;;2.35;;
39094;SDS011;24840;47.508;19.376;2023-04-19T11:16:15;4.70;;;2.15;;
39094;SDS011;24840;47.508;19.376;2023-04-19T11:18:41;2.78;;;2.10;;
39094;SDS011;24840;47.508;19.376;2023-04-19T11:21:11;4.38;;;2.35;;
39094;SDS011;24840;47.508;19.376;2023-04-19T11:23:38;9.30;;;2.22;;
39094;SDS011;24840;47.508;19.376;2023-04-19T11:26:05;5.13;;;2.85;;
39094;SDS011;24840;47.508;19.376;2023-04-19T11:28:34;4.65;;;1.95;;
39094;SDS011;24840;47.508;19.376;2023-04-19T11:31:00;5.80;;;2.22;;
39094;SDS011;24840;47.508;19.376;2023-04-19T11:33:31;4.15;;;2.70;;
39094;SDS011;24840;47.508;19.376;2023-04-19T11:35:58;3.17;;;2.55;;
39094;SDS011;24840;47.508;19.376;2023-04-19T11:38:27;5.35;;;2.58;;
39094;SDS011;24840;47.508;19.376;2023-04-19T11:40:59;4.72;;;2.38;;
39094;SDS011;24840;47.508;19.376;2023-04-19T11:43:33;3.38;;;2.53;;
39094;SDS011;24840;47.508;19.376;2023-04-19T11:46:04;3.08;;;2.63;;
39094;SDS011;24840;47.508;19.376;2023-04-19T11:48:31;3.85;;;2.40;;
39094;SDS011;24840;47.508;19.376;2023-04-19T11:50:58;4.57;;;2.30;;
39094;SDS011;24840;47.508;19.376;2023-04-19T11:53:24;6.05;;;2.60;;
39094;SDS011;24840;47.508;19.376;2023-04-19T11:55:54;4.05;;;2.60;;
39094;SDS011;24840;47.508;19.376;2023-04-19T11:58:31;4.75;;;2.55;;
39094;SDS011;24840;47.508;19.376;2023-04-19T12:01:10;5.05;;;2.67;;
39094;SDS011;24840;47.508;19.376;2023-04-19T12:03:43;6.32;;;3.05;;
39094;SDS011;24840;47.508;19.376;2023-04-19T12:08:36;3.70;;;2.33;;
39094;SDS011;24840;47.508;19.376;2023-04-19T12:11:04;4.93;;;2.47;;
39094;SDS011;24840;47.508;19.376;2023-04-19T12:13:31;5.70;;;2.72;;
39094;SDS011;24840;47.508;19.376;2023-04-19T12:15:57;4.28;;;2.53;;
39094;SDS011;24840;47.508;19.376;2023-04-19T12:18:23;4.18;;;2.53;;
39094;SDS011;24840;47.508;19.376;2023-04-19T12:20:50;4.72;;;2.42;;
39094;SDS011;24840;47.508;19.376;2023-04-19T12:23:17;3.45;;;3.05;;
39094;SDS011;24840;47.508;19.376;2023-04-19T12:25:44;4.78;;;3.00;;
39094;SDS011;24840;47.508;19.376;2023-04-19T12:28:11;6.28;;;2.70;;
39094;SDS011;24840;47.508;19.376;2023-04-19T12:30:38;4.32;;;3.30;;
39094;SDS011;24840;47.508;19.376;2023-04-19T12:33:07;6.90;;;3.95;;
39094;SDS011;24840;47.508;19.376;2023-04-19T12:35:33;4.63;;;3.40;;
39094;SDS011;24840;47.508;19.376;2023-04-19T12:38:00;7.00;;;4.18;;
39094;SDS011;24840;47.508;19.376;2023-04-19T12:40:26;5.43;;;4.05;;
39094;SDS011;24840;47.508;19.376;2023-04-19T12:42:53;4.85;;;3.70;;
39094;SDS011;24840;47.508;19.376;2023-04-19T12:45:19;6.00;;;4.40;;
39094;SDS011;24840;47.508;19.376;2023-04-19T12:47:45;4.60;;;3.78;;
39094;SDS011;24840;47.508;19.376;2023-04-19T12:50:13;8.02;;;4.47;;
39094;SDS011;24840;47.508;19.376;2023-04-19T12:52:40;9.68;;;4.22;;
39094;SDS011;24840;47.508;19.376;2023-04-19T12:55:07;10.52;;;4.07;;
39094;SDS011;24840;47.508;19.376;2023-04-19T12:57:33;5.82;;;3.42;;
39094;SDS011;24840;47.508;19.376;2023-04-19T12:59:58;4.05;;;3.30;;
39094;SDS011;24840;47.508;19.376;2023-04-19T13:02:24;10.48;;;3.55;;
39094;SDS011;24840;47.508;19.376;2023-04-19T13:04:50;7.57;;;3.75;;
39094;SDS011;24840;47.508;19.376;2023-04-19T13:07:16;4.70;;;3.80;;
39094;SDS011;24840;47.508;19.376;2023-04-19T13:09:42;6.68;;;4.00;;
39094;SDS011;24840;47.508;19.376;2023-04-19T13:12:07;8.57;;;3.97;;
39094;SDS011;24840;47.508;19.376;2023-04-19T13:14:33;6.93;;;4.30;;
39094;SDS011;24840;47.508;19.376;2023-04-19T13:16:59;6.20;;;3.60;;
39094;SDS011;24840;47.508;19.376;2023-04-19T13:19:25;6.05;;;4.10;;
39094;SDS011;24840;47.508;19.376;2023-04-19T13:21:51;8.13;;;3.70;;
39094;SDS011;24840;47.508;19.376;2023-04-19T13:24:17;10.00;;;4.72;;
39094;SDS011;24840;47.508;19.376;2023-04-19T13:26:43;9.32;;;4.43;;
39094;SDS011;24840;47.508;19.376;2023-04-19T13:29:11;6.30;;;4.00;;
39094;SDS011;24840;47.508;19.376;2023-04-19T13:31:37;5.32;;;4.32;;
39094;SDS011;24840;47.508;19.376;2023-04-19T13:34:02;6.60;;;4.95;;
39094;SDS011;24840;47.508;19.376;2023-04-19T13:36:28;7.57;;;4.50;;
39094;SDS011;24840;47.508;19.376;2023-04-19T13:38:55;6.53;;;4.53;;
39094;SDS011;24840;47.508;19.376;2023-04-19T13:41:20;6.88;;;5.28;;
39094;SDS011;24840;47.508;19.376;2023-04-19T13:43:46;6.30;;;5.05;;
39094;SDS011;24840;47.508;19.376;2023-04-19T13:46:12;17.63;;;7.10;;
39094;SDS011;24840;47.508;19.376;2023-04-19T13:48:38;7.72;;;6.50;;
39094;SDS011;24840;47.508;19.376;2023-04-19T13:51:04;8.48;;;5.55;;
39094;SDS011;24840;47.508;19.376;2023-04-19T13:53:31;12.32;;;6.57;;
39094;SDS011;24840;47.508;19.376;2023-04-19T13:55:56;11.55;;;6.57;;
39094;SDS011;24840;47.508;19.376;2023-04-19T13:58:22;8.05;;;6.07;;
39094;SDS011;24840;47.508;19.376;2023-04-19T14:00:49;12.43;;;6.35;;
39094;SDS011;24840;47.508;19.376;2023-04-19T14:03:15;9.32;;;6.25;;
39094;SDS011;24840;47.508;19.376;2023-04-19T14:05:41;9.23;;;5.95;;
39094;SDS011;24840;47.508;19.376;2023-04-19T14:08:07;8.10;;;6.57;;
39094;SDS011;24840;47.508;19.376;2023-04-19T14:10:33;7.47;;;5.90;;
39094;SDS011;24840;47.508;19.376;2023-04-19T14:13:00;9.25;;;6.70;;
39094;SDS011;24840;47.508;19.376;2023-04-19T14:15:26;11.07;;;5.60;;
39094;SDS011;24840;47.508;19.376;2023-04-19T14:17:52;10.68;;;6.55;;
39094;SDS011;24840;47.508;19.376;2023-04-19T14:20:17;8.90;;;6.40;;
39094;SDS011;24840;47.508;19.376;2023-04-19T14:22:44;12.55;;;6.65;;
39094;SDS011;24840;47.508;19.376;2023-04-19T14:25:10;7.55;;;6.75;;
39094;SDS011;24840;47.508;19.376;2023-04-19T14:27:39;10.00;;;6.47;;
39094;SDS011;24840;47.508;19.376;2023-04-19T14:30:07;9.77;;;6.05;;
39094;SDS011;24840;47.508;19.376;2023-04-19T14:32:34;7.20;;;6.13;;
39094;SDS011;24840;47.508;19.376;2023-04-19T14:35:00;6.50;;;5.40;;
39094;SDS011;24840;47.508;19.376;2023-04-19T14:37:26;8.57;;;5.93;;
39094;SDS011;24840;47.508;19.376;2023-04-19T14:39:52;9.63;;;5.82;;
39094;SDS011;24840;47.508;19.376;2023-04-19T14:42:18;6.90;;;5.93;;
39094;SDS011;24840;47.508;19.376;2023-04-19T14:44:43;8.77;;;5.03;;
39094;SDS011;24840;47.508;19.376;2023-04-19T14:47:10;10.02;;;5.18;;
39094;SDS011;24840;47.508;19.376;2023-04-19T14:49:36;9.13;;;6.70;;
39094;SDS011;24840;47.508;19.376;2023-04-19T14:52:02;8.13;;;6.07;;
39094;SDS011;24840;47.508;19.376;2023-04-19T14:54:28;9.90;;;6.20;;
39094;SDS011;24840;47.508;19.376;2023-04-19T14:56:54;8.77;;;5.20;;
39094;SDS011;24840;47.508;19.376;2023-04-19T14:59:20;8.57;;;6.63;;